sensor_id;sensor_type;location;lat;lon;timestamp;temperature;humidity
3996;DHT22;2012;49.794;9.722;2022-12-13T00:01:18;-5.30;99.90
3996;DHT22;2012;49.794;9.722;2022-12-13T00:03:45;-5.40;99.90
3996;DHT22;2012;49.794;9.722;2022-12-13T00:06:12;-5.50;99.90
3996;DHT22;2012;49.794;9.722;2022-12-13T00:08:39;-5.50;99.90
3996;DHT22;2012;49.794;9.722;2022-12-13T00:11:10;-5.50;99.90
3996;DHT22;2012;49.794;9.722;2022-12-13T00:13:37;-5.60;99.90
3996;DHT22;2012;49.794;9.722;2022-12-13T00:16:06;-5.50;99.90
3996;DHT22;2012;49.794;9.722;2022-12-13T00:18:34;-5.50;99.90
3996;DHT22;2012;49.794;9.722;2022-12-13T00:21:04;-5.50;99.90
3996;DHT22;2012;49.794;9.722;2022-12-13T00:23:31;-5.50;99.90
3996;DHT22;2012;49.794;9.722;2022-12-13T00:26:05;-5.50;99.90
3996;DHT22;2012;49.794;9.722;2022-12-13T00:28:32;-5.60;99.90
3996;DHT22;2012;49.794;9.722;2022-12-13T00:31:00;-5.60;99.90
3996;DHT22;2012;49.794;9.722;2022-12-13T00:33:47;-5.70;99.90
3996;DHT22;2012;49.794;9.722;2022-12-13T00:36:15;-5.70;99.90
3996;DHT22;2012;49.794;9.722;2022-12-13T00:38:42;-5.70;99.90
3996;DHT22;2012;49.794;9.722;2022-12-13T00:43:37;-5.60;99.90
3996;DHT22;2012;49.794;9.722;2022-12-13T00:46:04;-5.80;99.90
3996;DHT22;2012;49.794;9.722;2022-12-13T00:48:31;-5.80;99.90
3996;DHT22;2012;49.794;9.722;2022-12-13T00:50:57;-5.60;99.90
3996;DHT22;2012;49.794;9.722;2022-12-13T00:53:24;-5.70;99.90
3996;DHT22;2012;49.794;9.722;2022-12-13T00:55:51;-5.70;99.90
3996;DHT22;2012;49.794;9.722;2022-12-13T00:58:17;-5.70;99.90
3996;DHT22;2012;49.794;9.722;2022-12-13T01:00:44;-5.70;99.90
3996;DHT22;2012;49.794;9.722;2022-12-13T01:03:11;-5.70;99.90
3996;DHT22;2012;49.794;9.722;2022-12-13T01:05:50;-5.70;99.90
3996;DHT22;2012;49.794;9.722;2022-12-13T01:08:37;-5.70;99.90
3996;DHT22;2012;49.794;9.722;2022-12-13T01:11:05;-5.80;99.90
3996;DHT22;2012;49.794;9.722;2022-12-13T01:13:32;-5.80;99.90
3996;DHT22;2012;49.794;9.722;2022-12-13T01:16:01;-5.90;99.90
3996;DHT22;2012;49.794;9.722;2022-12-13T01:18:29;-5.80;99.90
3996;DHT22;2012;49.794;9.722;2022-12-13T01:20:57;-5.80;99.90
3996;DHT22;2012;49.794;9.722;2022-12-13T01:23:25;-5.80;99.90
3996;DHT22;2012;49.794;9.722;2022-12-13T01:25:52;-5.90;99.90
3996;DHT22;2012;49.794;9.722;2022-12-13T01:28:20;-5.90;99.90
3996;DHT22;2012;49.794;9.722;2022-12-13T01:30:58;-6.00;99.90
3996;DHT22;2012;49.794;9.722;2022-12-13T01:33:25;-6.00;99.90
3996;DHT22;2012;49.794;9.722;2022-12-13T01:35:52;-6.10;99.90
3996;DHT22;2012;49.794;9.722;2022-12-13T01:38:19;-6.00;99.90
3996;DHT22;2012;49.794;9.722;2022-12-13T01:40:53;-6.00;99.90
3996;DHT22;2012;49.794;9.722;2022-12-13T01:43:28;-6.00;99.90
3996;DHT22;2012;49.794;9.722;2022-12-13T01:45:55;-6.10;99.90
3996;DHT22;2012;49.794;9.722;2022-12-13T01:48:28;-6.10;99.90
3996;DHT22;2012;49.794;9.722;2022-12-13T01:50:59;-6.10;99.90
3996;DHT22;2012;49.794;9.722;2022-12-13T01:53:30;-6.10;99.90
3996;DHT22;2012;49.794;9.722;2022-12-13T01:56:03;-6.10;99.90
3996;DHT22;2012;49.794;9.722;2022-12-13T01:58:32;-6.00;99.90
3996;DHT22;2012;49.794;9.722;2022-12-13T02:01:00;-6.10;99.90
3996;DHT22;2012;49.794;9.722;2022-12-13T02:03:28;-6.20;99.90
3996;DHT22;2012;49.794;9.722;2022-12-13T02:06:09;-6.20;99.90
3996;DHT22;2012;49.794;9.722;2022-12-13T02:08:39;-6.30;99.90
3996;DHT22;2012;49.794;9.722;2022-12-13T02:11:06;-6.20;99.90
3996;DHT22;2012;49.794;9.722;2022-12-13T02:13:36;-6.20;99.90
3996;DHT22;2012;49.794;9.722;2022-12-13T02:16:22;-6.20;99.90
3996;DHT22;2012;49.794;9.722;2022-12-13T02:35:52;-6.20;99.90
3996;DHT22;2012;49.794;9.722;2022-12-13T02:41:16;-6.30;99.90
3996;DHT22;2012;49.794;9.722;2022-12-13T02:43:57;-6.30;99.90
3996;DHT22;2012;49.794;9.722;2022-12-13T02:46:30;-6.30;99.90
3996;DHT22;2012;49.794;9.722;2022-12-13T02:48:59;-6.30;99.90
3996;DHT22;2012;49.794;9.722;2022-12-13T02:51:27;-6.40;99.90
3996;DHT22;2012;49.794;9.722;2022-12-13T02:53:55;-6.40;99.90
3996;DHT22;2012;49.794;9.722;2022-12-13T02:56:22;-6.40;99.90
3996;DHT22;2012;49.794;9.722;2022-12-13T02:58:51;-6.40;99.90
3996;DHT22;2012;49.794;9.722;2022-12-13T03:01:45;-6.40;99.90
3996;DHT22;2012;49.794;9.722;2022-12-13T03:04:43;-6.40;99.90
3996;DHT22;2012;49.794;9.722;2022-12-13T03:07:45;-6.50;99.90
3996;DHT22;2012;49.794;9.722;2022-12-13T03:10:20;-6.50;99.90
3996;DHT22;2012;49.794;9.722;2022-12-13T03:13:01;-6.50;99.90
3996;DHT22;2012;49.794;9.722;2022-12-13T03:15:56;-6.50;99.90
3996;DHT22;2012;49.794;9.722;2022-12-13T03:18:26;-6.50;99.90
3996;DHT22;2012;49.794;9.722;2022-12-13T03:20:57;-6.50;99.90
3996;DHT22;2012;49.794;9.722;2022-12-13T03:23:25;-6.60;99.90
3996;DHT22;2012;49.794;9.722;2022-12-13T03:25:55;-6.50;99.90
3996;DHT22;2012;49.794;9.722;2022-12-13T03:28:23;-6.60;99.90
3996;DHT22;2012;49.794;9.722;2022-12-13T03:30:50;-6.60;99.90
3996;DHT22;2012;49.794;9.722;2022-12-13T03:33:16;-6.60;99.90
3996;DHT22;2012;49.794;9.722;2022-12-13T03:35:43;-6.60;99.90
3996;DHT22;2012;49.794;9.722;2022-12-13T03:38:12;-6.60;99.90
3996;DHT22;2012;49.794;9.722;2022-12-13T03:40:51;-6.70;99.90
3996;DHT22;2012;49.794;9.722;2022-12-13T03:43:19;-6.70;99.90
3996;DHT22;2012;49.794;9.722;2022-12-13T03:45:48;-6.60;99.90
3996;DHT22;2012;49.794;9.722;2022-12-13T03:48:15;-6.60;99.90
3996;DHT22;2012;49.794;9.722;2022-12-13T03:50:49;-6.60;99.90
3996;DHT22;2012;49.794;9.722;2022-12-13T03:53:16;-6.60;99.90
3996;DHT22;2012;49.794;9.722;2022-12-13T03:55:58;-6.70;99.90
3996;DHT22;2012;49.794;9.722;2022-12-13T03:58:26;-6.70;99.90
3996;DHT22;2012;49.794;9.722;2022-12-13T04:01:06;-6.80;99.90
3996;DHT22;2012;49.794;9.722;2022-12-13T04:03:34;-6.80;99.90
3996;DHT22;2012;49.794;9.722;2022-12-13T04:06:00;-6.80;99.90
3996;DHT22;2012;49.794;9.722;2022-12-13T04:08:27;-6.80;99.90
3996;DHT22;2012;49.794;9.722;2022-12-13T04:10:54;-6.80;99.90
3996;DHT22;2012;49.794;9.722;2022-12-13T04:13:20;-6.70;99.90
3996;DHT22;2012;49.794;9.722;2022-12-13T04:16:00;-6.80;99.90
3996;DHT22;2012;49.794;9.722;2022-12-13T04:18:28;-6.80;99.90
3996;DHT22;2012;49.794;9.722;2022-12-13T04:20:54;-6.90;99.90
3996;DHT22;2012;49.794;9.722;2022-12-13T04:23:22;-6.90;99.90
3996;DHT22;2012;49.794;9.722;2022-12-13T04:25:49;-6.90;99.90
3996;DHT22;2012;49.794;9.722;2022-12-13T04:28:16;-6.90;99.90
3996;DHT22;2012;49.794;9.722;2022-12-13T04:30:49;-6.90;99.90
3996;DHT22;2012;49.794;9.722;2022-12-13T04:33:20;-7.00;99.90
3996;DHT22;2012;49.794;9.722;2022-12-13T04:35:47;-6.90;99.90
3996;DHT22;2012;49.794;9.722;2022-12-13T04:38:14;-6.90;99.90
3996;DHT22;2012;49.794;9.722;2022-12-13T04:40:41;-6.90;99.90
3996;DHT22;2012;49.794;9.722;2022-12-13T04:43:07;-6.90;99.90
3996;DHT22;2012;49.794;9.722;2022-12-13T04:45:34;-6.90;99.90
3996;DHT22;2012;49.794;9.722;2022-12-13T04:48:01;-7.00;99.90
3996;DHT22;2012;49.794;9.722;2022-12-13T04:50:28;-7.10;99.90
3996;DHT22;2012;49.794;9.722;2022-12-13T04:52:54;-7.10;99.90
3996;DHT22;2012;49.794;9.722;2022-12-13T04:55:21;-7.10;99.90
3996;DHT22;2012;49.794;9.722;2022-12-13T04:57:48;-7.10;99.90
3996;DHT22;2012;49.794;9.722;2022-12-13T05:00:15;-7.00;99.90
3996;DHT22;2012;49.794;9.722;2022-12-13T05:02:42;-7.10;99.90
3996;DHT22;2012;49.794;9.722;2022-12-13T05:05:09;-7.10;99.90
3996;DHT22;2012;49.794;9.722;2022-12-13T05:07:36;-7.10;99.90
3996;DHT22;2012;49.794;9.722;2022-12-13T05:10:09;-7.00;99.90
3996;DHT22;2012;49.794;9.722;2022-12-13T05:12:36;-7.10;99.90
3996;DHT22;2012;49.794;9.722;2022-12-13T05:15:04;-7.10;99.90
3996;DHT22;2012;49.794;9.722;2022-12-13T05:17:32;-7.20;99.90
3996;DHT22;2012;49.794;9.722;2022-12-13T05:19:58;-7.10;99.90
3996;DHT22;2012;49.794;9.722;2022-12-13T05:22:25;-7.20;99.90
3996;DHT22;2012;49.794;9.722;2022-12-13T05:24:52;-7.20;99.90
3996;DHT22;2012;49.794;9.722;2022-12-13T05:27:19;-7.20;99.90
3996;DHT22;2012;49.794;9.722;2022-12-13T05:29:52;-7.30;99.90
3996;DHT22;2012;49.794;9.722;2022-12-13T05:32:31;-7.30;99.90
3996;DHT22;2012;49.794;9.722;2022-12-13T05:35:12;-7.20;99.90
3996;DHT22;2012;49.794;9.722;2022-12-13T05:37:50;-7.10;99.90
3996;DHT22;2012;49.794;9.722;2022-12-13T05:40:20;-7.20;99.90
3996;DHT22;2012;49.794;9.722;2022-12-13T05:42:47;-7.30;99.90
3996;DHT22;2012;49.794;9.722;2022-12-13T05:45:15;-7.30;99.90
3996;DHT22;2012;49.794;9.722;2022-12-13T05:47:43;-7.30;99.90
3996;DHT22;2012;49.794;9.722;2022-12-13T05:50:10;-7.30;99.90
3996;DHT22;2012;49.794;9.722;2022-12-13T05:52:37;-7.20;99.90
3996;DHT22;2012;49.794;9.722;2022-12-13T05:55:04;-7.20;99.90
3996;DHT22;2012;49.794;9.722;2022-12-13T05:57:31;-7.30;99.90
3996;DHT22;2012;49.794;9.722;2022-12-13T05:59:59;-7.20;99.90
3996;DHT22;2012;49.794;9.722;2022-12-13T06:02:26;-7.20;99.90
3996;DHT22;2012;49.794;9.722;2022-12-13T06:04:53;-7.30;99.90
3996;DHT22;2012;49.794;9.722;2022-12-13T06:07:20;-7.40;99.90
3996;DHT22;2012;49.794;9.722;2022-12-13T06:09:47;-7.30;99.90
3996;DHT22;2012;49.794;9.722;2022-12-13T06:12:13;-7.30;99.90
3996;DHT22;2012;49.794;9.722;2022-12-13T06:14:58;-7.30;99.90
3996;DHT22;2012;49.794;9.722;2022-12-13T06:17:36;-7.30;99.90
3996;DHT22;2012;49.794;9.722;2022-12-13T06:20:04;-7.20;99.90
3996;DHT22;2012;49.794;9.722;2022-12-13T06:22:51;-7.20;99.90
3996;DHT22;2012;49.794;9.722;2022-12-13T06:25:19;-7.30;99.90
3996;DHT22;2012;49.794;9.722;2022-12-13T06:27:58;-7.30;99.90
3996;DHT22;2012;49.794;9.722;2022-12-13T06:30:28;-7.30;99.90
3996;DHT22;2012;49.794;9.722;2022-12-13T06:32:55;-7.40;99.90
3996;DHT22;2012;49.794;9.722;2022-12-13T06:35:22;-7.40;99.90
3996;DHT22;2012;49.794;9.722;2022-12-13T06:37:58;-7.50;99.90
3996;DHT22;2012;49.794;9.722;2022-12-13T06:40:29;-7.40;99.90
3996;DHT22;2012;49.794;9.722;2022-12-13T06:42:56;-7.40;99.90
3996;DHT22;2012;49.794;9.722;2022-12-13T06:45:23;-7.40;99.90
3996;DHT22;2012;49.794;9.722;2022-12-13T06:47:50;-7.30;99.90
3996;DHT22;2012;49.794;9.722;2022-12-13T06:50:16;-7.40;99.90
3996;DHT22;2012;49.794;9.722;2022-12-13T06:52:45;-7.40;99.90
3996;DHT22;2012;49.794;9.722;2022-12-13T06:55:12;-7.40;99.90
3996;DHT22;2012;49.794;9.722;2022-12-13T06:57:40;-7.50;99.90
3996;DHT22;2012;49.794;9.722;2022-12-13T07:00:08;-7.50;99.90
3996;DHT22;2012;49.794;9.722;2022-12-13T07:02:35;-7.50;99.90
3996;DHT22;2012;49.794;9.722;2022-12-13T07:05:04;-7.60;99.90
3996;DHT22;2012;49.794;9.722;2022-12-13T07:07:31;-7.60;99.90
3996;DHT22;2012;49.794;9.722;2022-12-13T07:09:58;-7.50;99.90
3996;DHT22;2012;49.794;9.722;2022-12-13T07:12:24;-7.50;99.90
3996;DHT22;2012;49.794;9.722;2022-12-13T07:14:51;-7.50;99.90
3996;DHT22;2012;49.794;9.722;2022-12-13T07:17:18;-7.50;99.90
3996;DHT22;2012;49.794;9.722;2022-12-13T07:20:00;-7.60;99.90
3996;DHT22;2012;49.794;9.722;2022-12-13T07:22:27;-7.50;99.90
3996;DHT22;2012;49.794;9.722;2022-12-13T07:24:54;-7.60;99.90
3996;DHT22;2012;49.794;9.722;2022-12-13T07:27:20;-7.60;99.90
3996;DHT22;2012;49.794;9.722;2022-12-13T07:29:47;-7.50;99.90
3996;DHT22;2012;49.794;9.722;2022-12-13T07:32:14;-7.50;99.90
3996;DHT22;2012;49.794;9.722;2022-12-13T07:34:40;-7.60;99.90
3996;DHT22;2012;49.794;9.722;2022-12-13T07:37:08;-7.50;99.90
3996;DHT22;2012;49.794;9.722;2022-12-13T07:39:55;-7.50;99.90
3996;DHT22;2012;49.794;9.722;2022-12-13T07:42:29;-7.40;99.90
3996;DHT22;2012;49.794;9.722;2022-12-13T07:44:55;-7.50;99.90
3996;DHT22;2012;49.794;9.722;2022-12-13T07:47:22;-7.50;99.90
3996;DHT22;2012;49.794;9.722;2022-12-13T07:49:49;-7.50;99.90
3996;DHT22;2012;49.794;9.722;2022-12-13T07:52:16;-7.50;99.90
3996;DHT22;2012;49.794;9.722;2022-12-13T07:54:42;-7.40;99.90
3996;DHT22;2012;49.794;9.722;2022-12-13T07:57:09;-7.40;99.90
3996;DHT22;2012;49.794;9.722;2022-12-13T07:59:36;-7.30;99.90
3996;DHT22;2012;49.794;9.722;2022-12-13T08:02:05;-7.20;99.90
3996;DHT22;2012;49.794;9.722;2022-12-13T08:04:32;-7.20;99.90
3996;DHT22;2012;49.794;9.722;2022-12-13T08:07:07;-7.40;99.90
3996;DHT22;2012;49.794;9.722;2022-12-13T08:09:35;-7.20;99.90
3996;DHT22;2012;49.794;9.722;2022-12-13T08:12:03;-7.20;99.90
3996;DHT22;2012;49.794;9.722;2022-12-13T08:14:30;-7.20;99.90
3996;DHT22;2012;49.794;9.722;2022-12-13T08:16:57;-7.20;99.90
3996;DHT22;2012;49.794;9.722;2022-12-13T08:19:24;-7.10;99.90
3996;DHT22;2012;49.794;9.722;2022-12-13T08:21:51;-7.00;99.90
3996;DHT22;2012;49.794;9.722;2022-12-13T08:24:25;-7.00;99.90
3996;DHT22;2012;49.794;9.722;2022-12-13T08:26:52;-6.90;99.90
3996;DHT22;2012;49.794;9.722;2022-12-13T08:29:19;-6.90;99.90
3996;DHT22;2012;49.794;9.722;2022-12-13T08:31:57;-7.10;99.90
3996;DHT22;2012;49.794;9.722;2022-12-13T08:34:26;-6.70;99.90
3996;DHT22;2012;49.794;9.722;2022-12-13T08:36:53;-7.00;99.90
3996;DHT22;2012;49.794;9.722;2022-12-13T08:39:32;-7.10;99.90
3996;DHT22;2012;49.794;9.722;2022-12-13T08:42:04;-6.70;99.90
3996;DHT22;2012;49.794;9.722;2022-12-13T08:44:51;-6.60;99.90
3996;DHT22;2012;49.794;9.722;2022-12-13T08:47:19;-6.90;99.90
3996;DHT22;2012;49.794;9.722;2022-12-13T08:49:57;-6.70;99.90
3996;DHT22;2012;49.794;9.722;2022-12-13T08:52:31;-6.40;99.90
3996;DHT22;2012;49.794;9.722;2022-12-13T08:55:10;-6.40;99.90
3996;DHT22;2012;49.794;9.722;2022-12-13T08:57:39;-6.30;99.90
3996;DHT22;2012;49.794;9.722;2022-12-13T09:00:08;-6.30;99.90
3996;DHT22;2012;49.794;9.722;2022-12-13T09:02:37;-6.30;99.90
3996;DHT22;2012;49.794;9.722;2022-12-13T09:05:05;-5.90;99.90
3996;DHT22;2012;49.794;9.722;2022-12-13T09:07:34;-5.70;99.90
3996;DHT22;2012;49.794;9.722;2022-12-13T09:10:08;-5.70;99.90
3996;DHT22;2012;49.794;9.722;2022-12-13T09:12:54;-5.70;99.90
3996;DHT22;2012;49.794;9.722;2022-12-13T09:15:28;-5.80;99.90
3996;DHT22;2012;49.794;9.722;2022-12-13T09:18:01;-5.50;99.90
3996;DHT22;2012;49.794;9.722;2022-12-13T09:20:31;-5.40;99.90
3996;DHT22;2012;49.794;9.722;2022-12-13T09:23:08;-5.70;99.90
3996;DHT22;2012;49.794;9.722;2022-12-13T09:25:57;-5.30;99.90
3996;DHT22;2012;49.794;9.722;2022-12-13T09:28:33;-5.10;99.90
3996;DHT22;2012;49.794;9.722;2022-12-13T09:31:00;-5.00;99.90
3996;DHT22;2012;49.794;9.722;2022-12-13T09:33:27;-4.80;99.90
3996;DHT22;2012;49.794;9.722;2022-12-13T09:35:56;-4.90;99.90
3996;DHT22;2012;49.794;9.722;2022-12-13T09:38:26;-4.80;99.90
3996;DHT22;2012;49.794;9.722;2022-12-13T09:40:54;-4.60;99.90
3996;DHT22;2012;49.794;9.722;2022-12-13T09:43:28;-4.50;99.90
3996;DHT22;2012;49.794;9.722;2022-12-13T09:46:04;-4.20;99.90
3996;DHT22;2012;49.794;9.722;2022-12-13T09:48:50;-4.20;99.90
3996;DHT22;2012;49.794;9.722;2022-12-13T09:51:26;-4.10;99.90
3996;DHT22;2012;49.794;9.722;2022-12-13T09:54:06;-3.90;99.90
3996;DHT22;2012;49.794;9.722;2022-12-13T09:56:33;-3.60;99.90
3996;DHT22;2012;49.794;9.722;2022-12-13T09:59:00;-3.50;99.90
3996;DHT22;2012;49.794;9.722;2022-12-13T10:01:27;-3.30;99.90
3996;DHT22;2012;49.794;9.722;2022-12-13T10:03:54;-3.20;99.90
3996;DHT22;2012;49.794;9.722;2022-12-13T10:06:24;-3.20;99.90
3996;DHT22;2012;49.794;9.722;2022-12-13T10:08:56;-3.20;99.90
3996;DHT22;2012;49.794;9.722;2022-12-13T10:11:25;-3.10;99.90
3996;DHT22;2012;49.794;9.722;2022-12-13T10:14:02;-3.00;99.90
3996;DHT22;2012;49.794;9.722;2022-12-13T10:19:17;-2.40;99.90
3996;DHT22;2012;49.794;9.722;2022-12-13T10:21:56;-2.10;99.90
3996;DHT22;2012;49.794;9.722;2022-12-13T10:24:46;-2.30;99.90
3996;DHT22;2012;49.794;9.722;2022-12-13T10:27:15;-2.30;99.90
3996;DHT22;2012;49.794;9.722;2022-12-13T10:30:05;-2.30;99.90
3996;DHT22;2012;49.794;9.722;2022-12-13T10:32:47;-1.90;99.90
3996;DHT22;2012;49.794;9.722;2022-12-13T10:37:54;-1.70;99.90
3996;DHT22;2012;49.794;9.722;2022-12-13T10:40:41;-1.70;99.90
3996;DHT22;2012;49.794;9.722;2022-12-13T10:43:16;-1.80;99.90
3996;DHT22;2012;49.794;9.722;2022-12-13T10:48:46;-1.30;99.90
3996;DHT22;2012;49.794;9.722;2022-12-13T10:51:16;-1.10;99.90
3996;DHT22;2012;49.794;9.722;2022-12-13T10:53:46;-1.00;99.90
3996;DHT22;2012;49.794;9.722;2022-12-13T10:56:15;-0.90;99.90
3996;DHT22;2012;49.794;9.722;2022-12-13T10:59:07;-0.90;99.90
3996;DHT22;2012;49.794;9.722;2022-12-13T11:01:42;-0.90;99.90
3996;DHT22;2012;49.794;9.722;2022-12-13T11:04:27;-0.60;99.90
3996;DHT22;2012;49.794;9.722;2022-12-13T11:06:57;-0.60;99.90
3996;DHT22;2012;49.794;9.722;2022-12-13T11:09:25;-0.40;99.90
3996;DHT22;2012;49.794;9.722;2022-12-13T11:11:53;-0.50;99.90
3996;DHT22;2012;49.794;9.722;2022-12-13T11:14:30;-0.50;99.90
3996;DHT22;2012;49.794;9.722;2022-12-13T11:17:07;-0.30;99.90
3996;DHT22;2012;49.794;9.722;2022-12-13T11:19:45;-0.30;99.90
3996;DHT22;2012;49.794;9.722;2022-12-13T11:22:28;-0.10;99.90
3996;DHT22;2012;49.794;9.722;2022-12-13T11:25:22;-0.30;99.90
3996;DHT22;2012;49.794;9.722;2022-12-13T11:27:59;-0.10;99.90
3996;DHT22;2012;49.794;9.722;2022-12-13T11:31:40;0.20;99.90
3996;DHT22;2012;49.794;9.722;2022-12-13T11:34:21;0.20;99.90
3996;DHT22;2012;49.794;9.722;2022-12-13T11:39:32;0.70;99.90
3996;DHT22;2012;49.794;9.722;2022-12-13T11:42:10;0.60;99.90
3996;DHT22;2012;49.794;9.722;2022-12-13T11:48:03;0.90;99.90
3996;DHT22;2012;49.794;9.722;2022-12-13T11:50:35;0.80;99.90
3996;DHT22;2012;49.794;9.722;2022-12-13T11:53:30;1.00;99.90
3996;DHT22;2012;49.794;9.722;2022-12-13T11:56:21;1.10;99.90
3996;DHT22;2012;49.794;9.722;2022-12-13T12:01:54;1.00;99.90
3996;DHT22;2012;49.794;9.722;2022-12-13T12:04:36;1.00;99.90
3996;DHT22;2012;49.794;9.722;2022-12-13T12:07:43;1.10;99.90
3996;DHT22;2012;49.794;9.722;2022-12-13T12:10:36;1.30;99.90
3996;DHT22;2012;49.794;9.722;2022-12-13T12:15:48;1.40;99.90
3996;DHT22;2012;49.794;9.722;2022-12-13T12:18:20;1.60;99.90
3996;DHT22;2012;49.794;9.722;2022-12-13T12:21:08;1.70;99.90
3996;DHT22;2012;49.794;9.722;2022-12-13T12:26:26;1.90;99.90
3996;DHT22;2012;49.794;9.722;2022-12-13T12:32:21;2.00;99.90
3996;DHT22;2012;49.794;9.722;2022-12-13T12:38:00;2.20;99.90
3996;DHT22;2012;49.794;9.722;2022-12-13T12:41:03;2.00;99.90
3996;DHT22;2012;49.794;9.722;2022-12-13T12:43:42;2.10;99.90
3996;DHT22;2012;49.794;9.722;2022-12-13T12:55:37;2.70;99.90
3996;DHT22;2012;49.794;9.722;2022-12-13T12:58:25;2.60;99.90
3996;DHT22;2012;49.794;9.722;2022-12-13T13:03:34;2.40;99.90
3996;DHT22;2012;49.794;9.722;2022-12-13T13:08:49;2.00;99.90
3996;DHT22;2012;49.794;9.722;2022-12-13T13:11:22;1.90;99.90
3996;DHT22;2012;49.794;9.722;2022-12-13T13:18:57;2.20;99.90
3996;DHT22;2012;49.794;9.722;2022-12-13T13:26:41;1.80;99.90
3996;DHT22;2012;49.794;9.722;2022-12-13T13:37:54;1.80;99.90
3996;DHT22;2012;49.794;9.722;2022-12-13T13:40:35;1.90;99.90
3996;DHT22;2012;49.794;9.722;2022-12-13T13:48:55;1.40;99.90
3996;DHT22;2012;49.794;9.722;2022-12-13T13:54:24;1.30;99.90
3996;DHT22;2012;49.794;9.722;2022-12-13T14:22:46;0.60;99.90
3996;DHT22;2012;49.794;9.722;2022-12-13T14:30:21;0.60;99.90
3996;DHT22;2012;49.794;9.722;2022-12-13T14:32:55;0.40;99.90
3996;DHT22;2012;49.794;9.722;2022-12-13T14:35:27;0.20;99.90
3996;DHT22;2012;49.794;9.722;2022-12-13T14:38:00;-0.10;99.90
3996;DHT22;2012;49.794;9.722;2022-12-13T14:40:34;-0.20;99.90
3996;DHT22;2012;49.794;9.722;2022-12-13T14:43:01;-0.20;99.90
3996;DHT22;2012;49.794;9.722;2022-12-13T14:45:34;-0.30;99.90
3996;DHT22;2012;49.794;9.722;2022-12-13T14:48:12;-0.40;99.90
3996;DHT22;2012;49.794;9.722;2022-12-13T14:50:42;-0.40;99.90
3996;DHT22;2012;49.794;9.722;2022-12-13T14:53:29;-0.50;99.90
3996;DHT22;2012;49.794;9.722;2022-12-13T14:56:10;-0.60;99.90
3996;DHT22;2012;49.794;9.722;2022-12-13T14:58:55;-0.80;99.90
3996;DHT22;2012;49.794;9.722;2022-12-13T15:01:30;-0.80;99.90
3996;DHT22;2012;49.794;9.722;2022-12-13T15:04:26;-0.90;99.90
3996;DHT22;2012;49.794;9.722;2022-12-13T15:07:03;-1.10;99.90
3996;DHT22;2012;49.794;9.722;2022-12-13T15:09:37;-1.20;99.90
3996;DHT22;2012;49.794;9.722;2022-12-13T15:12:13;-1.30;99.90
3996;DHT22;2012;49.794;9.722;2022-12-13T15:15:06;-1.50;99.90
3996;DHT22;2012;49.794;9.722;2022-12-13T15:17:36;-1.50;99.90
3996;DHT22;2012;49.794;9.722;2022-12-13T15:20:23;-1.50;99.90
3996;DHT22;2012;49.794;9.722;2022-12-13T15:23:03;-1.60;99.90
3996;DHT22;2012;49.794;9.722;2022-12-13T15:25:34;-1.60;99.90
3996;DHT22;2012;49.794;9.722;2022-12-13T15:28:03;-1.70;99.90
3996;DHT22;2012;49.794;9.722;2022-12-13T15:30:32;-1.70;99.90
3996;DHT22;2012;49.794;9.722;2022-12-13T15:35:44;-1.90;99.90
3996;DHT22;2012;49.794;9.722;2022-12-13T15:38:17;-2.00;99.90
3996;DHT22;2012;49.794;9.722;2022-12-13T15:40:54;-2.20;99.90
3996;DHT22;2012;49.794;9.722;2022-12-13T15:43:26;-2.30;99.90
3996;DHT22;2012;49.794;9.722;2022-12-13T15:45:56;-2.20;99.90
3996;DHT22;2012;49.794;9.722;2022-12-13T15:48:30;-2.20;99.90
3996;DHT22;2012;49.794;9.722;2022-12-13T15:51:13;-2.40;99.90
3996;DHT22;2012;49.794;9.722;2022-12-13T15:56:37;-2.50;99.90
3996;DHT22;2012;49.794;9.722;2022-12-13T15:59:05;-2.40;99.90
3996;DHT22;2012;49.794;9.722;2022-12-13T16:01:49;-2.70;99.90
3996;DHT22;2012;49.794;9.722;2022-12-13T16:04:25;-2.70;99.90
3996;DHT22;2012;49.794;9.722;2022-12-13T16:06:54;-2.70;99.90
3996;DHT22;2012;49.794;9.722;2022-12-13T16:09:26;-2.60;99.90
3996;DHT22;2012;49.794;9.722;2022-12-13T16:12:05;-2.70;99.90
3996;DHT22;2012;49.794;9.722;2022-12-13T16:14:42;-2.70;99.90
3996;DHT22;2012;49.794;9.722;2022-12-13T16:17:24;-2.80;99.90
3996;DHT22;2012;49.794;9.722;2022-12-13T16:19:52;-2.80;99.90
3996;DHT22;2012;49.794;9.722;2022-12-13T16:22:20;-2.90;99.90
3996;DHT22;2012;49.794;9.722;2022-12-13T16:24:50;-2.90;99.90
3996;DHT22;2012;49.794;9.722;2022-12-13T16:27:18;-2.80;99.90
3996;DHT22;2012;49.794;9.722;2022-12-13T16:29:44;-2.90;99.90
3996;DHT22;2012;49.794;9.722;2022-12-13T16:32:11;-3.10;99.90
3996;DHT22;2012;49.794;9.722;2022-12-13T16:34:38;-3.20;99.90
3996;DHT22;2012;49.794;9.722;2022-12-13T16:37:07;-3.00;99.90
3996;DHT22;2012;49.794;9.722;2022-12-13T16:39:52;-3.10;99.90
3996;DHT22;2012;49.794;9.722;2022-12-13T16:42:19;-2.90;99.90
3996;DHT22;2012;49.794;9.722;2022-12-13T16:44:51;-2.80;99.90
3996;DHT22;2012;49.794;9.722;2022-12-13T16:47:38;-2.80;99.90
3996;DHT22;2012;49.794;9.722;2022-12-13T16:50:16;-2.80;99.90
3996;DHT22;2012;49.794;9.722;2022-12-13T16:52:43;-2.80;99.90
3996;DHT22;2012;49.794;9.722;2022-12-13T16:55:10;-2.80;99.90
3996;DHT22;2012;49.794;9.722;2022-12-13T16:57:38;-3.00;99.90
3996;DHT22;2012;49.794;9.722;2022-12-13T17:00:06;-2.80;99.90
3996;DHT22;2012;49.794;9.722;2022-12-13T17:02:36;-2.80;99.90
3996;DHT22;2012;49.794;9.722;2022-12-13T17:05:04;-2.80;99.90
3996;DHT22;2012;49.794;9.722;2022-12-13T17:07:31;-2.90;99.90
3996;DHT22;2012;49.794;9.722;2022-12-13T17:09:58;-2.90;99.90
3996;DHT22;2012;49.794;9.722;2022-12-13T17:12:25;-3.00;99.90
3996;DHT22;2012;49.794;9.722;2022-12-13T17:14:52;-3.10;99.90
3996;DHT22;2012;49.794;9.722;2022-12-13T17:17:19;-3.10;99.90
3996;DHT22;2012;49.794;9.722;2022-12-13T17:19:46;-3.10;99.90
3996;DHT22;2012;49.794;9.722;2022-12-13T17:22:13;-3.10;99.90
3996;DHT22;2012;49.794;9.722;2022-12-13T17:24:40;-3.20;99.90
3996;DHT22;2012;49.794;9.722;2022-12-13T17:27:07;-3.20;99.90
3996;DHT22;2012;49.794;9.722;2022-12-13T17:29:33;-3.30;99.90
3996;DHT22;2012;49.794;9.722;2022-12-13T17:32:00;-3.50;99.90
3996;DHT22;2012;49.794;9.722;2022-12-13T17:34:27;-3.60;99.90
3996;DHT22;2012;49.794;9.722;2022-12-13T17:36:53;-3.50;99.90
3996;DHT22;2012;49.794;9.722;2022-12-13T17:39:20;-3.50;99.90
3996;DHT22;2012;49.794;9.722;2022-12-13T17:41:47;-3.40;99.90
3996;DHT22;2012;49.794;9.722;2022-12-13T17:44:22;-3.40;99.90
3996;DHT22;2012;49.794;9.722;2022-12-13T17:46:48;-3.50;99.90
3996;DHT22;2012;49.794;9.722;2022-12-13T17:49:21;-3.50;99.90
3996;DHT22;2012;49.794;9.722;2022-12-13T17:51:48;-3.50;99.90
3996;DHT22;2012;49.794;9.722;2022-12-13T17:54:17;-3.60;99.90
3996;DHT22;2012;49.794;9.722;2022-12-13T17:56:45;-3.70;99.90
3996;DHT22;2012;49.794;9.722;2022-12-13T17:59:12;-3.70;99.90
3996;DHT22;2012;49.794;9.722;2022-12-13T18:01:44;-3.80;99.90
3996;DHT22;2012;49.794;9.722;2022-12-13T18:04:11;-3.70;99.90
3996;DHT22;2012;49.794;9.722;2022-12-13T18:06:38;-3.80;99.90
3996;DHT22;2012;49.794;9.722;2022-12-13T18:09:06;-3.70;99.90
3996;DHT22;2012;49.794;9.722;2022-12-13T18:11:34;-3.80;99.90
3996;DHT22;2012;49.794;9.722;2022-12-13T18:14:02;-3.80;99.90
3996;DHT22;2012;49.794;9.722;2022-12-13T18:16:30;-3.90;99.90
3996;DHT22;2012;49.794;9.722;2022-12-13T18:19:05;-3.80;99.90
3996;DHT22;2012;49.794;9.722;2022-12-13T18:21:32;-3.80;99.90
3996;DHT22;2012;49.794;9.722;2022-12-13T18:23:59;-3.90;99.90
3996;DHT22;2012;49.794;9.722;2022-12-13T18:26:26;-4.00;99.90
3996;DHT22;2012;49.794;9.722;2022-12-13T18:28:53;-3.90;99.90
3996;DHT22;2012;49.794;9.722;2022-12-13T18:31:21;-3.90;99.90
3996;DHT22;2012;49.794;9.722;2022-12-13T18:33:50;-3.80;99.90
3996;DHT22;2012;49.794;9.722;2022-12-13T18:36:18;-3.70;99.90
3996;DHT22;2012;49.794;9.722;2022-12-13T18:38:45;-3.70;99.90
3996;DHT22;2012;49.794;9.722;2022-12-13T18:41:16;-3.70;99.90
3996;DHT22;2012;49.794;9.722;2022-12-13T18:43:43;-3.60;99.90